Time;durP1;ratioP1;P1;durP2;ratioP2;P2;SDS_P1;SDS_P2;PMS_P1;PMS_P2;Temp;Humidity;BMP_temperature;BMP_pressure;BME280_temperature;BME280_humidity;BME280_pressure;Samples;Min_cycle;Max_cycle;Signal;HPM_P1;HPM_P2
2022/06/28 00:00:32;;;;;;;;;;;;;;;17.61;58.88;101047.31;4956276;28;6907;-79
2022/06/28 00:02:57;;;;;;;;;;;;;;;17.59;58.76;101044.69;4920635;28;6985;-78
2022/06/28 00:05:23;;;;;;;;;;;;;;;17.58;59.07;101048.13;4943581;28;6840;-79
2022/06/28 00:07:49;;;;;;;;;;;;;;;17.58;58.83;101037.75;4960605;28;7219;-79
2022/06/28 00:10:16;;;;;;;;;;;;;;;17.57;58.77;101035.97;4928775;28;7133;-79
2022/06/28 00:12:42;;;;;;;;;;;;;;;17.57;59.14;101037.69;4942755;28;6796;-79
2022/06/28 00:17:57;;;;;;;;;;;;;;;17.54;58.58;101040.22;4937634;28;6804;-79
2022/06/28 00:20:23;;;;;;;;;;;;;;;17.52;58.81;101029.78;4958352;28;6919;-79
2022/06/28 00:22:49;;;;;;;;;;;;;;;17.52;58.86;101036.66;4928717;28;6793;-79
2022/06/28 00:25:15;;;;;;;;;;;;;;;17.50;59.34;101036.66;4937191;28;8519;-80
2022/06/28 00:27:41;;;;;;;;;;;;;;;17.46;58.91;101038.25;4940463;28;7225;-80
2022/06/28 00:30:07;;;;;;;;;;;;;;;17.42;59.13;101030.34;4961606;28;7247;-80
2022/06/28 00:32:33;;;;;;;;;;;;;;;17.40;59.14;101038.06;4934101;28;7372;-80
2022/06/28 00:35:00;;;;;;;;;;;;;;;17.38;59.50;101033.66;4933748;28;6944;-80
2022/06/28 00:37:27;;;;;;;;;;;;;;;17.37;59.35;101032.81;4949566;28;7292;-80
2022/06/28 00:39:52;;;;;;;;;;;;;;;17.38;59.70;101031.97;4959183;28;7121;-80
2022/06/28 00:42:19;;;;;;;;;;;;;;;17.39;59.63;101031.13;4952121;28;8390;-80
2022/06/28 00:44:46;;;;;;;;;;;;;;;17.41;59.56;101037.22;4919968;28;6987;-80
2022/06/28 00:47:14;;;;;;;;;;;;;;;17.44;59.84;101039.94;4945098;28;6999;-81
2022/06/28 00:49:42;;;;;;;;;;;;;;;17.48;59.36;101035.72;4914806;28;8596;-80
2022/06/28 00:52:10;;;;;;;;;;;;;;;17.50;59.56;101034.06;4946896;28;7361;-80
2022/06/28 00:54:36;;;;;;;;;;;;;;;17.51;59.28;101035.81;4915019;28;6981;-80
2022/06/28 00:57:04;;;;;;;;;;;;;;;17.54;59.36;101038.47;4962463;28;6796;-80
2022/06/28 00:59:29;;;;;;;;;;;;;;;17.56;59.34;101041.13;4919251;28;6998;-80
2022/06/28 01:01:59;;;;;;;;;;;;;;;17.56;58.85;101039.41;4919378;28;7311;-80
2022/06/28 01:04:25;;;;;;;;;;;;;;;17.56;59.14;101035.94;4946823;28;8494;-80
2022/06/28 01:06:53;;;;;;;;;;;;;;;17.55;59.25;101037.63;4948529;28;7048;-81
2022/06/28 01:09:20;;;;;;;;;;;;;;;17.54;59.41;101043.66;4919691;28;8376;-80
2022/06/28 01:11:46;;;;;;;;;;;;;;;17.53;58.99;101044.50;4955774;28;6812;-80
2022/06/28 01:14:12;;;;;;;;;;;;;;;17.53;59.27;101047.09;4926762;28;7294;-80
2022/06/28 01:16:38;;;;;;;;;;;;;;;17.50;59.06;101047.00;4928108;28;8508;-81
2022/06/28 01:19:05;;;;;;;;;;;;;;;17.46;59.03;101055.50;4949564;28;7255;-80
2022/06/28 01:21:35;;;;;;;;;;;;;;;17.42;59.33;101049.34;4941379;28;8791;-80
2022/06/28 01:24:01;;;;;;;;;;;;;;;17.39;59.47;101056.19;4933509;28;7709;-80
2022/06/28 01:26:27;;;;;;;;;;;;;;;17.36;59.53;101049.19;4955783;28;7242;-80
2022/06/28 01:28:53;;;;;;;;;;;;;;;17.32;59.35;101045.63;4918174;28;8485;-80
2022/06/28 01:31:22;;;;;;;;;;;;;;;17.33;59.06;101056.84;4928862;28;6856;-80
2022/06/28 01:33:51;;;;;;;;;;;;;;;17.31;59.28;101051.63;4960102;28;6789;-80
2022/06/28 01:36:17;;;;;;;;;;;;;;;17.29;58.78;101055.91;4933771;28;6780;-80
2022/06/28 01:38:43;;;;;;;;;;;;;;;17.26;58.67;101060.09;4928960;28;8409;-80
2022/06/28 01:41:32;;;;;;;;;;;;;;;17.22;58.83;101059.13;4933810;28;6980;-80
2022/06/28 01:43:57;;;;;;;;;;;;;;;17.21;58.74;101067.72;4952418;28;8381;-80
2022/06/28 01:46:27;;;;;;;;;;;;;;;17.20;58.76;101068.56;4946393;28;7283;-80
2022/06/28 01:48:54;;;;;;;;;;;;;;;17.17;59.15;101068.44;4962244;28;8419;-80
2022/06/28 01:51:20;;;;;;;;;;;;;;;17.16;58.87;101069.28;4960814;28;6966;-81
2022/06/28 01:53:46;;;;;;;;;;;;;;;17.12;59.17;101078.66;4957486;28;6953;-80
2022/06/28 01:56:12;;;;;;;;;;;;;;;17.11;59.19;101081.22;4946137;28;8487;-80
2022/06/28 01:58:39;;;;;;;;;;;;;;;17.10;59.16;101076.88;4918065;28;8568;-80
2022/06/28 02:01:05;;;;;;;;;;;;;;;17.05;59.00;101082.75;4953968;28;7206;-80
2022/06/28 02:03:31;;;;;;;;;;;;;;;17.03;58.84;101086.13;4932373;28;6784;-80
2022/06/28 02:05:56;;;;;;;;;;;;;;;16.99;58.73;101079.94;4943947;28;7311;-81
2022/06/28 02:08:22;;;;;;;;;;;;;;;16.96;58.91;101082.44;4930996;28;6965;-81
2022/06/28 02:10:47;;;;;;;;;;;;;;;16.91;58.80;101094.38;4955185;28;7836;-81
2022/06/28 02:13:13;;;;;;;;;;;;;;;16.87;58.74;101095.06;4936998;28;7274;-80
2022/06/28 02:15:39;;;;;;;;;;;;;;;16.80;59.07;101087.13;4912549;28;8825;-80
2022/06/28 02:18:04;;;;;;;;;;;;;;;16.76;59.01;101089.56;4940706;28;6994;-80
2022/06/28 02:20:30;;;;;;;;;;;;;;;16.74;59.12;101093.78;4912814;28;9278;-80
2022/06/28 02:22:56;;;;;;;;;;;;;;;16.69;59.31;101083.28;4940523;28;8385;-80
2022/06/28 02:25:21;;;;;;;;;;;;;;;16.69;59.31;101085.00;4927350;28;6920;-81
2022/06/28 02:27:47;;;;;;;;;;;;;;;16.69;59.12;101092.75;4930020;28;7716;-80
2022/06/28 02:30:13;;;;;;;;;;;;;;;16.67;59.05;101092.69;4931024;28;6781;-80
2022/06/28 02:32:39;;;;;;;;;;;;;;;16.66;59.29;101101.28;4965661;28;12988;-81
2022/06/28 02:40:34;;;;;;;;;;;;;;;16.59;59.16;101109.66;4945487;28;6804;-81
2022/06/28 02:43:01;;;;;;;;;;;;;;;16.58;59.19;101107.91;4948620;28;6912;-80
2022/06/28 02:45:32;;;;;;;;;;;;;;;16.57;59.34;101114.81;4948635;28;7028;-81
2022/06/28 02:47:59;;;;;;;;;;;;;;;16.55;58.94;101120.75;4961255;28;7232;-80
2022/06/28 02:50:26;;;;;;;;;;;;;;;16.56;59.15;101132.84;4934921;28;6980;-81
2022/06/28 02:52:51;;;;;;;;;;;;;;;16.54;58.88;101127.63;4935683;28;6991;-78
2022/06/28 02:55:18;;;;;;;;;;;;;;;16.53;58.96;101133.63;4955284;28;8590;-77
2022/06/28 02:57:45;;;;;;;;;;;;;;;16.53;59.35;101131.03;4936844;28;7050;-77
2022/06/28 03:00:15;;;;;;;;;;;;;;;16.51;59.21;101125.81;4976284;28;8422;-79
2022/06/28 03:02:43;;;;;;;;;;;;;;;16.51;59.09;101135.28;4942936;28;11345;-77
2022/06/28 03:05:13;;;;;;;;;;;;;;;16.50;59.06;101141.28;4963095;28;7266;-77
2022/06/28 03:07:40;;;;;;;;;;;;;;;16.48;58.91;101142.94;4946911;28;8149;-77
2022/06/28 03:10:07;;;;;;;;;;;;;;;16.44;58.67;101141.94;4947110;28;6804;-77
2022/06/28 03:12:33;;;;;;;;;;;;;;;16.43;59.21;101142.78;4933180;28;6994;-77
2022/06/28 03:14:59;;;;;;;;;;;;;;;16.41;58.72;101134.06;4971350;28;7161;-77
2022/06/28 03:17:25;;;;;;;;;;;;;;;16.39;58.96;101143.47;4970667;28;6791;-77
2022/06/28 03:19:50;;;;;;;;;;;;;;;16.36;59.27;101141.66;4957218;28;8789;-76
2022/06/28 03:22:16;;;;;;;;;;;;;;;16.35;59.42;101155.41;4972663;28;7117;-76
2022/06/28 03:24:42;;;;;;;;;;;;;;;16.33;59.42;101146.72;4965393;28;6973;-76
2022/06/28 03:27:08;;;;;;;;;;;;;;;16.33;59.46;101153.63;4933095;28;8454;-76
2022/06/28 03:29:34;;;;;;;;;;;;;;;16.34;58.95;101152.78;4933140;28;7162;-76
2022/06/28 03:31:59;;;;;;;;;;;;;;;16.36;59.63;101158.91;4948527;28;6945;-76
2022/06/28 03:34:25;;;;;;;;;;;;;;;16.38;59.77;101157.25;4973514;28;8097;-77
2022/06/28 03:36:51;;;;;;;;;;;;;;;16.38;59.17;101155.56;4947981;28;6792;-77
2022/06/28 03:39:17;;;;;;;;;;;;;;;16.41;59.13;101159.06;4965722;28;8025;-77
2022/06/28 03:41:43;;;;;;;;;;;;;;;16.43;59.25;101165.16;4949916;28;9710;-77
2022/06/28 03:44:10;;;;;;;;;;;;;;;16.44;59.26;101164.34;4960587;28;6994;-77
2022/06/28 03:46:36;;;;;;;;;;;;;;;16.45;59.06;101172.16;4932309;28;7230;-76
2022/06/28 03:49:01;;;;;;;;;;;;;;;16.48;59.68;101174.84;4974796;28;6923;-76
2022/06/28 03:51:27;;;;;;;;;;;;;;;16.49;59.29;101171.44;4947953;28;7166;-76
2022/06/28 03:53:53;;;;;;;;;;;;;;;16.49;59.39;101174.03;4933091;28;6967;-77
2022/06/28 03:56:19;;;;;;;;;;;;;;;16.50;59.32;101172.34;4966011;28;6804;-77
2022/06/28 03:58:44;;;;;;;;;;;;;;;16.52;59.04;101174.16;4938867;28;7109;-77
2022/06/28 04:01:10;;;;;;;;;;;;;;;16.55;59.36;101169.91;4970525;28;7441;-76
2022/06/28 04:03:36;;;;;;;;;;;;;;;16.58;59.37;101175.19;4968650;28;6808;-76
2022/06/28 04:06:03;;;;;;;;;;;;;;;16.60;59.34;101184.78;4948149;28;7021;-76
2022/06/28 04:08:29;;;;;;;;;;;;;;;16.62;58.93;101179.66;4976454;28;6991;-77
2022/06/28 04:13:42;;;;;;;;;;;;;;;16.68;59.54;101184.19;4974264;28;6804;-76
2022/06/28 04:16:08;;;;;;;;;;;;;;;16.70;59.25;101178.19;4950134;28;6896;-75
2022/06/28 04:18:34;;;;;;;;;;;;;;;16.78;59.50;101181.09;4940142;28;7138;-75
2022/06/28 04:21:00;;;;;;;;;;;;;;;16.95;60.71;101184.25;4942034;28;6983;-76
2022/06/28 04:23:26;;;;;;;;;;;;;;;17.19;60.40;101176.44;4937930;28;6974;-76
2022/06/28 04:25:53;;;;;;;;;;;;;;;17.52;60.62;101181.78;4976397;28;8858;-76
2022/06/28 04:28:19;;;;;;;;;;;;;;;17.81;60.94;101176.63;4930303;28;8513;-76
2022/06/28 04:30:45;;;;;;;;;;;;;;;18.12;60.59;101175.88;4961254;28;7094;-76
2022/06/28 04:33:10;;;;;;;;;;;;;;;18.42;60.21;101180.19;4974564;28;6764;-76
2022/06/28 04:35:36;;;;;;;;;;;;;;;18.72;59.49;101176.66;4978408;28;7105;-76
2022/06/28 04:38:02;;;;;;;;;;;;;;;18.99;59.08;101178.25;4944281;28;6836;-76
2022/06/28 04:40:28;;;;;;;;;;;;;;;19.26;58.42;101182.41;4967860;28;7077;-76
2022/06/28 04:42:54;;;;;;;;;;;;;;;19.48;58.22;101177.72;4951504;28;7248;-75
2022/06/28 04:45:20;;;;;;;;;;;;;;;19.74;57.77;101174.84;4968549;28;7231;-75
2022/06/28 04:47:46;;;;;;;;;;;;;;;20.03;58.22;101172.03;4958301;28;6976;-76
2022/06/28 04:50:11;;;;;;;;;;;;;;;20.38;58.57;101174.50;4961888;28;6943;-76
2022/06/28 04:52:40;;;;;;;;;;;;;;;20.76;57.64;101169.97;4948519;28;7136;-76
2022/06/28 04:55:06;;;;;;;;;;;;;;;21.13;56.70;101175.84;4966163;28;7682;-76
2022/06/28 04:57:32;;;;;;;;;;;;;;;21.48;56.21;101172.94;4973605;28;6872;-76
2022/06/28 04:59:58;;;;;;;;;;;;;;;21.84;54.79;101172.63;4951979;28;6910;-76
2022/06/28 05:02:23;;;;;;;;;;;;;;;22.13;53.90;101161.69;4946458;28;6844;-76
2022/06/28 05:04:49;;;;;;;;;;;;;;;22.40;52.69;101160.22;4956665;28;6836;-76
2022/06/28 05:07:15;;;;;;;;;;;;;;;22.65;52.65;101157.91;4944429;28;6760;-76
2022/06/28 05:09:40;;;;;;;;;;;;;;;22.93;53.47;101160.78;4967937;28;7226;-76
2022/06/28 05:12:07;;;;;;;;;;;;;;;23.30;53.47;101167.22;4946768;28;7232;-76
2022/06/28 05:14:34;;;;;;;;;;;;;;;23.66;52.47;101164.84;4952128;28;7175;-75
2022/06/28 05:17:01;;;;;;;;;;;;;;;24.03;51.32;101163.25;4958239;28;7161;-75
2022/06/28 05:19:27;;;;;;;;;;;;;;;24.33;50.83;101157.28;4968615;28;6858;-75
2022/06/28 05:21:54;;;;;;;;;;;;;;;24.60;49.41;101157.34;4973031;28;6868;-75
2022/06/28 05:24:20;;;;;;;;;;;;;;;24.76;48.25;101151.25;4964300;28;6966;-75
2022/06/28 05:26:46;;;;;;;;;;;;;;;24.91;48.16;101154.78;4953784;28;6773;-75
2022/06/28 05:29:12;;;;;;;;;;;;;;;25.08;47.49;101144.31;4978741;28;7098;-76
2022/06/28 05:31:37;;;;;;;;;;;;;;;25.27;47.59;101146.94;4959652;28;7384;-75
2022/06/28 05:34:03;;;;;;;;;;;;;;;25.51;46.92;101146.91;4960780;28;7242;-75
2022/06/28 05:36:29;;;;;;;;;;;;;;;25.73;46.20;101143.34;4975362;28;6771;-75
2022/06/28 05:38:56;;;;;;;;;;;;;;;25.93;45.77;101146.75;4963325;28;7196;-75
2022/06/28 05:41:22;;;;;;;;;;;;;;;26.10;44.55;101135.31;4944849;28;6793;-75
2022/06/28 05:43:48;;;;;;;;;;;;;;;26.25;44.43;101144.91;4954943;28;7234;-75
2022/06/28 05:46:13;;;;;;;;;;;;;;;26.39;44.34;101131.69;4961224;28;6854;-75
2022/06/28 05:48:39;;;;;;;;;;;;;;;26.54;43.86;101130.69;4974515;28;6776;-76
2022/06/28 05:51:04;;;;;;;;;;;;;;;26.70;44.13;101139.34;4936199;28;8584;-76
2022/06/28 05:53:30;;;;;;;;;;;;;;;26.91;43.27;101137.44;4960211;28;6788;-76
2022/06/28 05:55:56;;;;;;;;;;;;;;;27.02;42.19;101130.34;4962381;28;6972;-75
2022/06/28 05:58:22;;;;;;;;;;;;;;;27.05;42.27;101126.81;4975794;28;7223;-75
2022/06/28 06:00:49;;;;;;;;;;;;;;;27.07;41.77;101132.06;4973990;28;7844;-76
2022/06/28 06:03:15;;;;;;;;;;;;;;;27.00;40.61;101128.63;4932938;28;7018;-76
2022/06/28 06:05:41;;;;;;;;;;;;;;;26.77;40.03;101132.28;4947158;28;7261;-76
2022/06/28 06:08:07;;;;;;;;;;;;;;;26.39;39.59;101131.69;4975552;28;7168;-76
2022/06/28 06:10:32;;;;;;;;;;;;;;;25.90;39.23;101125.78;4951869;28;6855;-76
2022/06/28 06:12:58;;;;;;;;;;;;;;;25.39;39.28;101144.28;4964443;28;7158;-76
2022/06/28 06:15:24;;;;;;;;;;;;;;;24.94;40.54;101139.06;4952418;28;7082;-75
2022/06/28 06:17:49;;;;;;;;;;;;;;;24.53;40.02;101139.00;4965736;28;6942;-76
2022/06/28 06:20:15;;;;;;;;;;;;;;;24.18;40.68;101146.75;4961367;28;6768;-76
2022/06/28 06:22:41;;;;;;;;;;;;;;;23.85;40.81;101143.97;4975035;28;7054;-76
2022/06/28 06:25:07;;;;;;;;;;;;;;;23.58;40.85;101156.06;4960681;28;8027;-76
2022/06/28 06:27:33;;;;;;;;;;;;;;;23.33;41.28;101155.91;4945944;28;8514;-76
2022/06/28 06:29:58;;;;;;;;;;;;;;;23.11;41.36;101155.72;4961149;28;6911;-76
2022/06/28 06:32:24;;;;;;;;;;;;;;;22.95;41.94;101159.06;4946259;28;6776;-76
2022/06/28 06:34:50;;;;;;;;;;;;;;;22.78;41.85;101159.78;4976233;28;7169;-76
2022/06/28 06:37:15;;;;;;;;;;;;;;;22.63;41.95;101155.28;4948565;28;7092;-76
2022/06/28 06:39:41;;;;;;;;;;;;;;;22.52;42.09;101155.19;4960896;28;6844;-76
2022/06/28 06:42:07;;;;;;;;;;;;;;;22.45;42.25;101153.31;4943486;28;7245;-76
2022/06/28 06:44:33;;;;;;;;;;;;;;;22.36;42.67;101153.22;4965209;28;9702;-76
2022/06/28 06:46:59;;;;;;;;;;;;;;;22.29;42.44;101158.38;4963706;28;6852;-76
2022/06/28 06:49:25;;;;;;;;;;;;;;;22.23;42.17;101160.94;4977241;28;6804;-77
2022/06/28 06:51:50;;;;;;;;;;;;;;;22.17;42.32;101164.34;4964969;28;7254;-77
2022/06/28 06:54:16;;;;;;;;;;;;;;;22.16;42.60;101172.16;4958246;28;6792;-77
2022/06/28 06:56:42;;;;;;;;;;;;;;;22.18;42.79;101166.09;4978803;28;6772;-77
2022/06/28 06:59:10;;;;;;;;;;;;;;;22.34;43.17;101159.31;4962604;28;6959;-77
2022/06/28 07:01:36;;;;;;;;;;;;;;;22.68;43.38;101152.72;4978731;28;9318;-77
2022/06/28 07:04:05;;;;;;;;;;;;;;;23.15;43.44;101161.84;4981040;28;6867;-77
2022/06/28 07:06:31;;;;;;;;;;;;;;;23.74;43.19;101158.75;4969722;28;7242;-77
2022/06/28 07:08:57;;;;;;;;;;;;;;;24.33;42.82;101152.06;4979722;28;6779;-77
2022/06/28 07:11:23;;;;;;;;;;;;;;;24.97;41.38;101152.19;4935546;28;6844;-77
2022/06/28 07:13:48;;;;;;;;;;;;;;;25.57;40.48;101155.66;4969798;28;7170;-77
2022/06/28 07:16:14;;;;;;;;;;;;;;;26.15;40.41;101158.94;4954683;28;6958;-77
2022/06/28 07:18:40;;;;;;;;;;;;;;;26.67;38.64;101141.13;4967441;28;7258;-77
2022/06/28 07:21:05;;;;;;;;;;;;;;;27.10;38.15;101150.44;4978901;28;7051;-77
2022/06/28 07:23:31;;;;;;;;;;;;;;;27.46;36.92;101150.97;4937634;28;7133;-77
2022/06/28 07:25:57;;;;;;;;;;;;;;;27.71;36.55;101153.34;4966304;28;6796;-77
2022/06/28 07:28:23;;;;;;;;;;;;;;;27.96;35.93;101153.06;4932517;28;7026;-77
2022/06/28 07:30:48;;;;;;;;;;;;;;;28.23;35.38;101158.91;4979376;28;6788;-77
2022/06/28 07:33:14;;;;;;;;;;;;;;;28.41;35.13;101153.38;4953333;28;7218;-77
2022/06/28 07:35:41;;;;;;;;;;;;;;;28.64;35.21;101144.22;4951128;28;8047;-77
2022/06/28 07:38:07;;;;;;;;;;;;;;;28.96;34.90;101148.13;4978946;28;6976;-77
2022/06/28 07:40:32;;;;;;;;;;;;;;;29.28;34.48;101147.59;4950238;28;7231;-77
2022/06/28 07:42:58;;;;;;;;;;;;;;;29.56;33.72;101149.75;4937290;28;7005;-77
2022/06/28 07:45:24;;;;;;;;;;;;;;;29.87;33.58;101152.59;4947171;28;8950;-77
2022/06/28 07:47:49;;;;;;;;;;;;;;;30.13;32.82;101140.63;4954105;28;6836;-77
2022/06/28 07:53:06;;;;;;;;;;;;;;;30.49;31.51;101140.69;4974849;28;6796;-77
2022/06/28 07:55:32;;;;;;;;;;;;;;;30.69;31.69;101146.44;4934206;28;7442;-77
2022/06/28 07:57:59;;;;;;;;;;;;;;;30.93;31.71;101138.81;4963207;28;7031;-77
2022/06/28 08:00:26;;;;;;;;;;;;;;;31.17;30.96;101143.44;4978308;28;7305;-77
2022/06/28 08:02:54;;;;;;;;;;;;;;;31.33;30.20;101143.06;4958910;28;6796;-77
2022/06/28 08:05:21;;;;;;;;;;;;;;;31.38;30.45;101140.28;4953659;28;6776;-77
2022/06/28 08:07:48;;;;;;;;;;;;;;;31.35;30.56;101133.28;4949724;28;6841;-77
2022/06/28 08:10:15;;;;;;;;;;;;;;;31.40;31.00;101136.69;4965712;28;6866;-78
2022/06/28 08:12:40;;;;;;;;;;;;;;;31.56;30.60;101142.41;4952821;28;7042;-77
2022/06/28 08:15:07;;;;;;;;;;;;;;;31.74;30.26;101126.91;4959546;28;7286;-78
2022/06/28 08:17:33;;;;;;;;;;;;;;;31.91;30.26;101121.13;4937887;28;6960;-78
2022/06/28 08:20:00;;;;;;;;;;;;;;;32.09;29.59;101124.13;4970493;28;8374;-78
2022/06/28 08:22:25;;;;;;;;;;;;;;;32.27;29.93;101120.03;4952123;28;6960;-77
2022/06/28 08:24:52;;;;;;;;;;;;;;;32.49;29.38;101117.56;4964928;28;7241;-77
2022/06/28 08:27:18;;;;;;;;;;;;;;;32.64;29.19;101116.19;4936585;28;7016;-78
2022/06/28 08:29:45;;;;;;;;;;;;;;;32.80;28.87;101110.38;4976420;28;7262;-78
2022/06/28 08:32:12;;;;;;;;;;;;;;;32.96;28.74;101110.75;4951359;28;6994;-78
2022/06/28 08:34:38;;;;;;;;;;;;;;;33.16;28.70;101106.50;4964866;28;7248;-78
2022/06/28 08:37:05;;;;;;;;;;;;;;;33.34;28.37;101107.63;4950986;28;7201;-78
2022/06/28 08:39:32;;;;;;;;;;;;;;;33.47;28.09;101106.28;4963349;28;7465;-78
2022/06/28 08:42:04;;;;;;;;;;;;;;;33.68;28.48;101101.09;4977308;28;7355;-78
2022/06/28 08:44:35;;;;;;;;;;;;;;;33.96;28.15;101104.44;4977609;28;7367;-78
2022/06/28 08:47:04;;;;;;;;;;;;;;;34.19;28.19;101100.91;4976602;28;6791;-78
2022/06/28 08:49:49;;;;;;;;;;;;;;;34.49;27.87;101097.91;4982392;28;6988;-78
2022/06/28 08:52:16;;;;;;;;;;;;;;;34.78;27.25;101094.97;4964167;28;7196;-78
2022/06/28 08:54:42;;;;;;;;;;;;;;;34.99;26.70;101091.38;4980303;28;6983;-78
2022/06/28 08:57:08;;;;;;;;;;;;;;;35.06;26.99;101088.44;4974644;28;7320;-78
2022/06/28 08:59:36;;;;;;;;;;;;;;;35.07;26.01;101084.88;4950567;28;8246;-78
2022/06/28 09:02:07;;;;;;;;;;;;;;;35.01;26.18;101080.63;4976863;28;7416;-78
2022/06/28 09:04:33;;;;;;;;;;;;;;;35.02;26.46;101079.72;4961981;28;8150;-78
2022/06/28 09:07:00;;;;;;;;;;;;;;;35.08;26.20;101078.59;4980775;28;6792;-78
2022/06/28 09:09:26;;;;;;;;;;;;;;;35.23;25.74;101069.06;4940043;28;7350;-78
2022/06/28 09:11:53;;;;;;;;;;;;;;;35.31;25.93;101067.75;4979449;28;6791;-78
2022/06/28 09:14:28;;;;;;;;;;;;;;;35.39;25.41;101070.06;4959102;28;6979;-78
2022/06/28 09:16:55;;;;;;;;;;;;;;;35.59;25.68;101071.00;4963035;28;7296;-78
2022/06/28 09:19:38;;;;;;;;;;;;;;;35.95;25.34;101061.28;4952685;28;6867;-78
2022/06/28 09:22:05;;;;;;;;;;;;;;;36.28;25.15;101049.91;4944227;28;7119;-78
2022/06/28 09:24:34;;;;;;;;;;;;;;;36.61;24.75;101062.50;4980898;28;7346;-78
2022/06/28 09:27:06;;;;;;;;;;;;;;;36.89;24.21;101057.50;4965840;28;6800;-78
2022/06/28 09:29:50;;;;;;;;;;;;;;;37.20;23.82;101054.09;4948403;28;7168;-78
2022/06/28 09:32:24;;;;;;;;;;;;;;;37.43;23.98;101051.09;4949775;28;6943;-78
2022/06/28 09:35:16;;;;;;;;;;;;;;;37.80;24.06;101049.03;4978393;28;8522;-78
2022/06/28 09:37:48;;;;;;;;;;;;;;;38.16;23.67;101047.03;4962831;28;7036;-78
2022/06/28 09:40:19;;;;;;;;;;;;;;;38.38;22.93;101045.75;4977399;28;7108;-78
2022/06/28 09:43:03;;;;;;;;;;;;;;;38.57;22.77;101043.72;4947927;28;7917;-78
2022/06/28 09:45:29;;;;;;;;;;;;;;;38.70;22.56;101040.28;4936749;28;7271;-78
2022/06/28 09:47:55;;;;;;;;;;;;;;;38.81;22.20;101037.78;4977483;28;7205;-78
2022/06/28 09:50:25;;;;;;;;;;;;;;;38.88;21.77;101039.13;4979302;28;7073;-78
2022/06/28 09:52:52;;;;;;;;;;;;;;;38.95;21.79;101044.13;4974873;28;6812;-78
2022/06/28 09:55:19;;;;;;;;;;;;;;;39.00;21.54;101042.03;4964022;28;6975;-79
2022/06/28 09:57:47;;;;;;;;;;;;;;;39.15;21.21;101030.34;4949729;28;6864;-79
2022/06/28 10:00:17;;;;;;;;;;;;;;;39.41;21.14;101014.47;4960397;28;6988;-78
2022/06/28 10:02:43;;;;;;;;;;;;;;;39.67;21.05;101021.75;4932247;28;7446;-78
2022/06/28 10:05:10;;;;;;;;;;;;;;;39.86;20.69;101010.66;4965636;28;7313;-78
2022/06/28 10:07:38;;;;;;;;;;;;;;;39.84;20.34;101018.81;4951346;28;6868;-78
2022/06/28 10:10:08;;;;;;;;;;;;;;;39.79;20.67;101009.34;4951646;28;7370;-78
2022/06/28 10:15:25;;;;;;;;;;;;;;;40.02;20.07;101009.66;4974193;28;6800;-78
2022/06/28 10:18:00;;;;;;;;;;;;;;;40.12;19.87;101008.06;4947184;28;6797;-78
2022/06/28 10:20:30;;;;;;;;;;;;;;;40.05;19.46;101004.06;4964386;28;7041;-78
2022/06/28 10:23:25;;;;;;;;;;;;;;;39.88;19.25;100994.50;4961811;28;7069;-78
2022/06/28 10:26:26;;;;;;;;;;;;;;;39.78;18.86;100991.53;4958111;28;7086;-78
2022/06/28 10:29:06;;;;;;;;;;;;;;;38.72;19.09;100993.72;4955501;28;7039;-78
2022/06/28 10:31:43;;;;;;;;;;;;;;;37.72;19.67;100990.66;4965492;28;6812;-78
2022/06/28 10:34:22;;;;;;;;;;;;;;;36.87;20.60;100988.16;4949221;28;6976;-79
2022/06/28 10:37:00;;;;;;;;;;;;;;;36.05;20.80;100989.69;4947281;28;7201;-78
2022/06/28 10:39:31;;;;;;;;;;;;;;;34.97;21.68;101001.84;4943219;28;6804;-78
2022/06/28 10:42:00;;;;;;;;;;;;;;;34.56;22.33;100992.97;4952748;28;6808;-78
2022/06/28 10:44:30;;;;;;;;;;;;;;;34.59;22.42;100987.50;4962983;28;7221;-78
2022/06/28 10:47:01;;;;;;;;;;;;;;;34.35;23.17;100984.09;4940712;28;7119;-78
2022/06/28 10:49:57;;;;;;;;;;;;;;;34.11;24.28;100978.91;4966701;28;6973;-78
2022/06/28 10:52:32;;;;;;;;;;;;;;;34.49;24.14;100972.84;4952909;28;6959;-78
2022/06/28 10:54:58;;;;;;;;;;;;;;;35.20;24.12;100976.84;4969381;28;6850;-77
2022/06/28 10:57:32;;;;;;;;;;;;;;;35.41;23.66;100972.28;4966573;28;6840;-78
2022/06/28 11:00:08;;;;;;;;;;;;;;;35.09;22.61;100960.50;4961405;28;7978;-77
2022/06/28 11:02:51;;;;;;;;;;;;;;;34.55;23.18;100966.41;4946522;28;7027;-77
2022/06/28 11:05:20;;;;;;;;;;;;;;;34.19;23.73;100965.28;4952087;28;7194;-77
2022/06/28 11:07:59;;;;;;;;;;;;;;;33.74;24.08;100962.63;4937676;28;7118;-77
2022/06/28 11:10:26;;;;;;;;;;;;;;;33.32;24.09;100966.06;4947482;28;6898;-77
2022/06/28 11:12:51;;;;;;;;;;;;;;;32.96;24.76;100970.06;4975275;28;6788;-77
2022/06/28 11:15:36;;;;;;;;;;;;;;;32.64;24.75;100964.09;4979380;28;7041;-77
2022/06/28 11:18:14;;;;;;;;;;;;;;;32.34;24.86;100962.47;4963906;28;7074;-77
2022/06/28 11:20:40;;;;;;;;;;;;;;;32.06;25.55;100957.22;4945892;28;7229;-77
2022/06/28 11:23:05;;;;;;;;;;;;;;;32.08;25.93;100956.25;4944026;28;7225;-77
2022/06/28 11:28:17;;;;;;;;;;;;;;;33.56;25.42;100945.66;4951394;28;6797;-77
2022/06/28 11:30:43;;;;;;;;;;;;;;;34.54;24.32;100938.97;4933179;28;7141;-77
2022/06/28 11:33:11;;;;;;;;;;;;;;;35.50;24.67;100939.00;4931416;28;6958;-77
2022/06/28 11:35:38;;;;;;;;;;;;;;;36.39;23.19;100927.47;4945468;28;7032;-77
2022/06/28 11:38:07;;;;;;;;;;;;;;;37.05;22.10;100918.69;4950110;28;7212;-77
2022/06/28 11:40:52;;;;;;;;;;;;;;;37.29;21.64;100913.75;4978292;28;7181;-77
2022/06/28 11:43:25;;;;;;;;;;;;;;;37.21;21.43;100916.88;4967982;28;7246;-77
2022/06/28 11:45:53;;;;;;;;;;;;;;;36.91;21.72;100914.97;4955922;28;6800;-77
2022/06/28 11:48:27;;;;;;;;;;;;;;;36.41;21.07;100914.94;4972461;28;7323;-77
2022/06/28 11:50:59;;;;;;;;;;;;;;;36.30;21.67;100909.28;4938971;28;8723;-77
2022/06/28 11:53:30;;;;;;;;;;;;;;;36.45;22.01;100906.75;4948328;28;7381;-77
2022/06/28 11:55:58;;;;;;;;;;;;;;;36.78;21.38;100896.09;4982841;28;7016;-77
2022/06/28 11:58:31;;;;;;;;;;;;;;;36.91;21.53;100892.72;4981461;28;6833;-77
2022/06/28 12:01:16;;;;;;;;;;;;;;;36.28;21.74;100897.84;4980115;28;7161;-77
2022/06/28 12:03:41;;;;;;;;;;;;;;;35.76;21.98;100891.56;4957461;28;8339;-77
2022/06/28 12:06:20;;;;;;;;;;;;;;;35.45;22.12;100893.09;4968028;28;7235;-77
2022/06/28 12:08:49;;;;;;;;;;;;;;;35.26;22.20;100890.44;4934469;28;7336;-77
2022/06/28 12:11:28;;;;;;;;;;;;;;;35.13;22.49;100885.72;4970825;28;8202;-77
2022/06/28 12:14:03;;;;;;;;;;;;;;;35.38;22.55;100878.34;4952483;28;6880;-77
2022/06/28 12:16:44;;;;;;;;;;;;;;;35.88;22.06;100879.44;4964415;28;8094;-77
2022/06/28 12:19:18;;;;;;;;;;;;;;;36.55;22.57;100875.94;4955817;28;7270;-79
2022/06/28 12:22:03;;;;;;;;;;;;;;;37.13;21.68;100875.50;4960466;28;7224;-78
2022/06/28 12:24:42;;;;;;;;;;;;;;;37.12;21.15;100872.00;4962910;28;6958;-78
2022/06/28 12:27:21;;;;;;;;;;;;;;;36.77;21.45;100864.13;4943551;28;8282;-78
2022/06/28 12:29:48;;;;;;;;;;;;;;;36.68;20.97;100869.00;4946682;28;6816;-78
2022/06/28 12:32:15;;;;;;;;;;;;;;;36.59;21.55;100866.84;4962908;28;6953;-78
2022/06/28 12:34:41;;;;;;;;;;;;;;;36.80;21.44;100858.63;4952761;28;7015;-78
2022/06/28 12:37:08;;;;;;;;;;;;;;;36.96;20.95;100859.47;4969611;28;6877;-78
2022/06/28 12:39:34;;;;;;;;;;;;;;;37.15;21.30;100866.47;4980114;28;7021;-78
2022/06/28 12:42:00;;;;;;;;;;;;;;;37.33;21.10;100855.66;4978719;28;7177;-78
2022/06/28 12:44:25;;;;;;;;;;;;;;;37.61;21.26;100851.41;4947369;28;6856;-78
2022/06/28 12:46:52;;;;;;;;;;;;;;;37.81;20.66;100849.34;4982011;28;7836;-78
2022/06/28 12:49:19;;;;;;;;;;;;;;;37.60;20.53;100850.53;4978231;28;7390;-78
2022/06/28 12:51:45;;;;;;;;;;;;;;;37.34;20.53;100857.38;4981306;28;6784;-78
2022/06/28 12:54:11;;;;;;;;;;;;;;;37.28;20.40;100852.38;4979587;28;7038;-77
2022/06/28 12:56:37;;;;;;;;;;;;;;;37.35;20.62;100848.41;4952255;28;6772;-77
2022/06/28 12:59:03;;;;;;;;;;;;;;;37.44;20.47;100842.53;4952228;28;6844;-77
2022/06/28 13:01:29;;;;;;;;;;;;;;;37.71;20.57;100846.34;4968823;28;8361;-78
2022/06/28 13:03:55;;;;;;;;;;;;;;;38.08;20.14;100852.19;4964219;28;7173;-78
2022/06/28 13:06:21;;;;;;;;;;;;;;;38.11;19.53;100843.97;4960803;28;6772;-77
2022/06/28 13:08:47;;;;;;;;;;;;;;;37.49;19.90;100845.81;4964101;28;6975;-77
2022/06/28 13:11:13;;;;;;;;;;;;;;;36.80;19.94;100840.78;4966805;28;6784;-77